sensor_id;sensor_type;location;lat;lon;timestamp;P1;durP1;ratioP1;P2;durP2;ratioP2
39860;SDS011;25529;49.346;20.886;2024-01-15T00:01:17;46.13;;;18.13;;
39860;SDS011;25529;49.346;20.886;2024-01-15T00:03:43;45.08;;;17.55;;
39860;SDS011;25529;49.346;20.886;2024-01-15T00:06:08;51.50;;;19.92;;
39860;SDS011;25529;49.346;20.886;2024-01-15T00:08:34;49.13;;;20.15;;
39860;SDS011;25529;49.346;20.886;2024-01-15T00:11:00;49.85;;;21.48;;
39860;SDS011;25529;49.346;20.886;2024-01-15T00:13:26;50.97;;;22.45;;
39860;SDS011;25529;49.346;20.886;2024-01-15T00:15:51;50.70;;;22.08;;
39860;SDS011;25529;49.346;20.886;2024-01-15T00:18:17;43.83;;;18.80;;
39860;SDS011;25529;49.346;20.886;2024-01-15T00:20:42;39.40;;;16.45;;
39860;SDS011;25529;49.346;20.886;2024-01-15T00:23:08;44.15;;;18.73;;
39860;SDS011;25529;49.346;20.886;2024-01-15T00:25:34;41.65;;;17.63;;
39860;SDS011;25529;49.346;20.886;2024-01-15T00:28:00;40.38;;;16.63;;
39860;SDS011;25529;49.346;20.886;2024-01-15T00:30:26;35.13;;;14.43;;
39860;SDS011;25529;49.346;20.886;2024-01-15T00:32:52;33.75;;;13.77;;
39860;SDS011;25529;49.346;20.886;2024-01-15T00:35:18;34.85;;;14.13;;
39860;SDS011;25529;49.346;20.886;2024-01-15T00:37:43;39.53;;;17.23;;
39860;SDS011;25529;49.346;20.886;2024-01-15T00:40:10;44.88;;;19.45;;
39860;SDS011;25529;49.346;20.886;2024-01-15T00:42:36;42.85;;;18.60;;
39860;SDS011;25529;49.346;20.886;2024-01-15T00:45:02;41.65;;;17.33;;
39860;SDS011;25529;49.346;20.886;2024-01-15T00:47:28;39.25;;;15.93;;
39860;SDS011;25529;49.346;20.886;2024-01-15T00:49:53;39.63;;;17.27;;
39860;SDS011;25529;49.346;20.886;2024-01-15T00:52:18;37.45;;;16.70;;
39860;SDS011;25529;49.346;20.886;2024-01-15T00:54:44;39.08;;;16.48;;
39860;SDS011;25529;49.346;20.886;2024-01-15T00:57:10;40.25;;;16.23;;
39860;SDS011;25529;49.346;20.886;2024-01-15T00:59:36;38.40;;;15.15;;
39860;SDS011;25529;49.346;20.886;2024-01-15T01:02:02;37.83;;;14.50;;
39860;SDS011;25529;49.346;20.886;2024-01-15T01:04:28;40.00;;;16.65;;
39860;SDS011;25529;49.346;20.886;2024-01-15T01:06:54;39.50;;;17.50;;
39860;SDS011;25529;49.346;20.886;2024-01-15T01:09:20;37.95;;;15.30;;
39860;SDS011;25529;49.346;20.886;2024-01-15T01:11:46;36.85;;;14.82;;
39860;SDS011;25529;49.346;20.886;2024-01-15T01:14:12;36.30;;;14.43;;
39860;SDS011;25529;49.346;20.886;2024-01-15T01:16:38;32.03;;;13.20;;
39860;SDS011;25529;49.346;20.886;2024-01-15T01:19:05;35.50;;;13.63;;
39860;SDS011;25529;49.346;20.886;2024-01-15T01:21:31;33.22;;;12.68;;
39860;SDS011;25529;49.346;20.886;2024-01-15T01:23:57;34.63;;;14.43;;
39860;SDS011;25529;49.346;20.886;2024-01-15T01:26:23;37.30;;;15.10;;
39860;SDS011;25529;49.346;20.886;2024-01-15T01:28:49;36.00;;;14.43;;
39860;SDS011;25529;49.346;20.886;2024-01-15T01:31:15;34.10;;;14.13;;
39860;SDS011;25529;49.346;20.886;2024-01-15T01:33:42;36.33;;;14.77;;
39860;SDS011;25529;49.346;20.886;2024-01-15T01:36:08;33.45;;;14.43;;
39860;SDS011;25529;49.346;20.886;2024-01-15T01:38:34;33.53;;;13.10;;
39860;SDS011;25529;49.346;20.886;2024-01-15T01:41:00;39.20;;;13.82;;
39860;SDS011;25529;49.346;20.886;2024-01-15T01:43:25;32.42;;;12.43;;
39860;SDS011;25529;49.346;20.886;2024-01-15T01:45:51;30.48;;;12.52;;
39860;SDS011;25529;49.346;20.886;2024-01-15T01:48:17;31.90;;;13.25;;
39860;SDS011;25529;49.346;20.886;2024-01-15T01:50:44;34.60;;;13.45;;
39860;SDS011;25529;49.346;20.886;2024-01-15T01:53:09;33.40;;;12.95;;
39860;SDS011;25529;49.346;20.886;2024-01-15T01:55:35;30.55;;;12.35;;
39860;SDS011;25529;49.346;20.886;2024-01-15T01:58:01;32.67;;;12.65;;
39860;SDS011;25529;49.346;20.886;2024-01-15T02:00:27;30.63;;;11.32;;
39860;SDS011;25529;49.346;20.886;2024-01-15T02:02:53;33.23;;;13.30;;
39860;SDS011;25529;49.346;20.886;2024-01-15T02:05:19;34.30;;;13.50;;
39860;SDS011;25529;49.346;20.886;2024-01-15T02:07:47;32.72;;;12.57;;
39860;SDS011;25529;49.346;20.886;2024-01-15T02:10:13;32.03;;;13.27;;
39860;SDS011;25529;49.346;20.886;2024-01-15T02:12:39;35.60;;;14.57;;
39860;SDS011;25529;49.346;20.886;2024-01-15T02:15:05;35.22;;;14.05;;
39860;SDS011;25529;49.346;20.886;2024-01-15T02:17:31;33.97;;;13.48;;
39860;SDS011;25529;49.346;20.886;2024-01-15T02:19:57;36.08;;;14.18;;
39860;SDS011;25529;49.346;20.886;2024-01-15T02:22:23;34.25;;;13.57;;
39860;SDS011;25529;49.346;20.886;2024-01-15T02:24:49;33.70;;;13.00;;
39860;SDS011;25529;49.346;20.886;2024-01-15T02:27:15;34.40;;;12.75;;
39860;SDS011;25529;49.346;20.886;2024-01-15T02:29:41;34.95;;;14.55;;
39860;SDS011;25529;49.346;20.886;2024-01-15T02:32:08;36.10;;;14.88;;
39860;SDS011;25529;49.346;20.886;2024-01-15T02:34:34;37.35;;;17.02;;
39860;SDS011;25529;49.346;20.886;2024-01-15T02:37:00;44.37;;;17.60;;
39860;SDS011;25529;49.346;20.886;2024-01-15T02:39:26;37.92;;;15.73;;
39860;SDS011;25529;49.346;20.886;2024-01-15T02:41:52;34.85;;;14.52;;
39860;SDS011;25529;49.346;20.886;2024-01-15T02:44:17;32.30;;;13.02;;
39860;SDS011;25529;49.346;20.886;2024-01-15T02:46:43;67.50;;;33.57;;
39860;SDS011;25529;49.346;20.886;2024-01-15T02:49:09;44.70;;;18.60;;
39860;SDS011;25529;49.346;20.886;2024-01-15T02:51:34;48.90;;;21.38;;
39860;SDS011;25529;49.346;20.886;2024-01-15T02:54:00;38.72;;;16.75;;
39860;SDS011;25529;49.346;20.886;2024-01-15T02:56:26;36.35;;;15.23;;
39860;SDS011;25529;49.346;20.886;2024-01-15T02:58:52;43.05;;;17.25;;
39860;SDS011;25529;49.346;20.886;2024-01-15T03:01:20;110.22;;;48.22;;
39860;SDS011;25529;49.346;20.886;2024-01-15T03:03:47;53.70;;;22.02;;
39860;SDS011;25529;49.346;20.886;2024-01-15T03:06:12;40.78;;;17.83;;
39860;SDS011;25529;49.346;20.886;2024-01-15T03:08:38;49.77;;;21.47;;
39860;SDS011;25529;49.346;20.886;2024-01-15T03:11:04;47.77;;;20.30;;
39860;SDS011;25529;49.346;20.886;2024-01-15T03:13:30;46.38;;;19.75;;
39860;SDS011;25529;49.346;20.886;2024-01-15T03:15:55;55.77;;;23.43;;
39860;SDS011;25529;49.346;20.886;2024-01-15T03:18:21;42.72;;;17.63;;
39860;SDS011;25529;49.346;20.886;2024-01-15T03:20:46;45.22;;;19.17;;
39860;SDS011;25529;49.346;20.886;2024-01-15T03:23:12;38.03;;;16.63;;
39860;SDS011;25529;49.346;20.886;2024-01-15T03:25:38;38.97;;;16.63;;
39860;SDS011;25529;49.346;20.886;2024-01-15T03:28:03;34.75;;;13.75;;
39860;SDS011;25529;49.346;20.886;2024-01-15T03:30:29;31.48;;;13.05;;
39860;SDS011;25529;49.346;20.886;2024-01-15T03:32:54;33.97;;;12.55;;
39860;SDS011;25529;49.346;20.886;2024-01-15T03:35:20;32.63;;;12.18;;
39860;SDS011;25529;49.346;20.886;2024-01-15T03:37:45;33.70;;;14.23;;
39860;SDS011;25529;49.346;20.886;2024-01-15T03:40:11;33.25;;;14.00;;
39860;SDS011;25529;49.346;20.886;2024-01-15T03:42:37;36.20;;;15.23;;
39860;SDS011;25529;49.346;20.886;2024-01-15T03:45:03;31.75;;;13.15;;
39860;SDS011;25529;49.346;20.886;2024-01-15T03:47:29;40.90;;;15.95;;
39860;SDS011;25529;49.346;20.886;2024-01-15T03:49:55;35.05;;;14.93;;
39860;SDS011;25529;49.346;20.886;2024-01-15T03:52:20;37.80;;;15.60;;
39860;SDS011;25529;49.346;20.886;2024-01-15T03:54:46;37.20;;;15.33;;
39860;SDS011;25529;49.346;20.886;2024-01-15T03:57:12;35.63;;;13.77;;
39860;SDS011;25529;49.346;20.886;2024-01-15T03:59:40;33.95;;;12.88;;
39860;SDS011;25529;49.346;20.886;2024-01-15T04:02:05;31.97;;;13.37;;
39860;SDS011;25529;49.346;20.886;2024-01-15T04:04:30;30.85;;;12.27;;
39860;SDS011;25529;49.346;20.886;2024-01-15T04:06:56;32.05;;;12.30;;
39860;SDS011;25529;49.346;20.886;2024-01-15T04:09:22;31.95;;;13.32;;
39860;SDS011;25529;49.346;20.886;2024-01-15T04:11:47;30.27;;;12.23;;
39860;SDS011;25529;49.346;20.886;2024-01-15T04:14:13;34.75;;;12.85;;
39860;SDS011;25529;49.346;20.886;2024-01-15T04:16:38;33.05;;;13.35;;
39860;SDS011;25529;49.346;20.886;2024-01-15T04:19:04;33.23;;;13.63;;
39860;SDS011;25529;49.346;20.886;2024-01-15T04:21:29;34.03;;;13.07;;
39860;SDS011;25529;49.346;20.886;2024-01-15T04:23:55;32.90;;;12.83;;
39860;SDS011;25529;49.346;20.886;2024-01-15T04:26:20;27.95;;;11.20;;
39860;SDS011;25529;49.346;20.886;2024-01-15T04:28:46;27.10;;;9.77;;
39860;SDS011;25529;49.346;20.886;2024-01-15T04:31:20;32.70;;;13.10;;
39860;SDS011;25529;49.346;20.886;2024-01-15T04:33:46;32.53;;;13.47;;
39860;SDS011;25529;49.346;20.886;2024-01-15T04:36:12;32.63;;;13.83;;
39860;SDS011;25529;49.346;20.886;2024-01-15T04:38:38;33.50;;;12.73;;
39860;SDS011;25529;49.346;20.886;2024-01-15T04:41:04;31.83;;;11.82;;
39860;SDS011;25529;49.346;20.886;2024-01-15T04:43:30;31.25;;;11.65;;
39860;SDS011;25529;49.346;20.886;2024-01-15T04:45:56;30.38;;;11.20;;
39860;SDS011;25529;49.346;20.886;2024-01-15T04:48:21;29.30;;;10.55;;
39860;SDS011;25529;49.346;20.886;2024-01-15T04:50:48;27.02;;;10.27;;
39860;SDS011;25529;49.346;20.886;2024-01-15T04:53:14;27.08;;;10.07;;
39860;SDS011;25529;49.346;20.886;2024-01-15T04:55:40;25.42;;;9.98;;
39860;SDS011;25529;49.346;20.886;2024-01-15T04:58:05;26.52;;;10.13;;
39860;SDS011;25529;49.346;20.886;2024-01-15T05:03:47;27.95;;;10.00;;
39860;SDS011;25529;49.346;20.886;2024-01-15T05:06:13;33.73;;;11.60;;
39860;SDS011;25529;49.346;20.886;2024-01-15T05:08:38;29.83;;;11.23;;
39860;SDS011;25529;49.346;20.886;2024-01-15T05:11:04;206.98;;;118.45;;
39860;SDS011;25529;49.346;20.886;2024-01-15T05:13:30;62.17;;;32.03;;
39860;SDS011;25529;49.346;20.886;2024-01-15T05:15:56;29.52;;;10.80;;
39860;SDS011;25529;49.346;20.886;2024-01-15T05:18:22;27.63;;;9.93;;
39860;SDS011;25529;49.346;20.886;2024-01-15T05:20:48;26.30;;;9.05;;
39860;SDS011;25529;49.346;20.886;2024-01-15T05:23:13;78.03;;;42.73;;
39860;SDS011;25529;49.346;20.886;2024-01-15T05:25:39;78.90;;;30.20;;
39860;SDS011;25529;49.346;20.886;2024-01-15T05:28:05;26.77;;;9.50;;
39860;SDS011;25529;49.346;20.886;2024-01-15T05:30:30;25.23;;;8.43;;
39860;SDS011;25529;49.346;20.886;2024-01-15T05:32:56;25.77;;;8.93;;
39860;SDS011;25529;49.346;20.886;2024-01-15T05:35:23;24.00;;;8.52;;
39860;SDS011;25529;49.346;20.886;2024-01-15T05:37:48;25.55;;;9.27;;
39860;SDS011;25529;49.346;20.886;2024-01-15T05:40:14;29.95;;;10.13;;
39860;SDS011;25529;49.346;20.886;2024-01-15T05:42:41;26.83;;;9.50;;
39860;SDS011;25529;49.346;20.886;2024-01-15T05:45:06;30.58;;;11.95;;
39860;SDS011;25529;49.346;20.886;2024-01-15T05:47:33;34.13;;;13.68;;
39860;SDS011;25529;49.346;20.886;2024-01-15T05:50:00;33.60;;;14.13;;
39860;SDS011;25529;49.346;20.886;2024-01-15T05:52:25;36.07;;;14.37;;
39860;SDS011;25529;49.346;20.886;2024-01-15T05:54:51;28.80;;;10.48;;
39860;SDS011;25529;49.346;20.886;2024-01-15T05:57:17;28.30;;;11.77;;
39860;SDS011;25529;49.346;20.886;2024-01-15T05:59:43;39.28;;;14.40;;
39860;SDS011;25529;49.346;20.886;2024-01-15T06:02:09;29.52;;;11.55;;
39860;SDS011;25529;49.346;20.886;2024-01-15T06:04:34;36.13;;;13.57;;
39860;SDS011;25529;49.346;20.886;2024-01-15T06:07:00;29.23;;;10.63;;
39860;SDS011;25529;49.346;20.886;2024-01-15T06:09:26;37.73;;;13.60;;
39860;SDS011;25529;49.346;20.886;2024-01-15T06:11:53;33.97;;;12.73;;
39860;SDS011;25529;49.346;20.886;2024-01-15T06:14:19;51.53;;;24.93;;
39860;SDS011;25529;49.346;20.886;2024-01-15T06:16:44;47.90;;;23.85;;
39860;SDS011;25529;49.346;20.886;2024-01-15T06:19:10;33.22;;;14.30;;
39860;SDS011;25529;49.346;20.886;2024-01-15T06:21:36;39.95;;;15.93;;
39860;SDS011;25529;49.346;20.886;2024-01-15T06:24:01;33.67;;;12.77;;
39860;SDS011;25529;49.346;20.886;2024-01-15T06:26:27;34.20;;;12.10;;
39860;SDS011;25529;49.346;20.886;2024-01-15T06:31:44;33.83;;;10.90;;
39860;SDS011;25529;49.346;20.886;2024-01-15T06:34:10;29.48;;;10.57;;
39860;SDS011;25529;49.346;20.886;2024-01-15T06:36:37;51.95;;;23.70;;
39860;SDS011;25529;49.346;20.886;2024-01-15T06:39:03;30.58;;;11.45;;
39860;SDS011;25529;49.346;20.886;2024-01-15T06:41:28;27.27;;;10.27;;
39860;SDS011;25529;49.346;20.886;2024-01-15T06:43:54;28.80;;;10.47;;
39860;SDS011;25529;49.346;20.886;2024-01-15T06:46:21;29.43;;;9.97;;
39860;SDS011;25529;49.346;20.886;2024-01-15T06:48:47;29.73;;;10.80;;
39860;SDS011;25529;49.346;20.886;2024-01-15T06:51:13;38.30;;;15.50;;
39860;SDS011;25529;49.346;20.886;2024-01-15T06:56:54;41.47;;;17.30;;
39860;SDS011;25529;49.346;20.886;2024-01-15T07:02:10;37.10;;;13.97;;
39860;SDS011;25529;49.346;20.886;2024-01-15T07:04:36;40.13;;;15.70;;
39860;SDS011;25529;49.346;20.886;2024-01-15T07:07:02;45.67;;;20.27;;
39860;SDS011;25529;49.346;20.886;2024-01-15T07:09:28;47.97;;;20.93;;
39860;SDS011;25529;49.346;20.886;2024-01-15T07:11:54;49.27;;;20.57;;
39860;SDS011;25529;49.346;20.886;2024-01-15T07:14:22;46.57;;;18.47;;
39860;SDS011;25529;49.346;20.886;2024-01-15T07:16:47;44.03;;;15.97;;
39860;SDS011;25529;49.346;20.886;2024-01-15T07:19:13;54.87;;;19.93;;
39860;SDS011;25529;49.346;20.886;2024-01-15T07:24:54;70.23;;;27.57;;
39860;SDS011;25529;49.346;20.886;2024-01-15T07:27:20;181.10;;;110.77;;
39860;SDS011;25529;49.346;20.886;2024-01-15T07:29:47;90.40;;;39.65;;
39860;SDS011;25529;49.346;20.886;2024-01-15T07:32:13;51.37;;;20.23;;
39860;SDS011;25529;49.346;20.886;2024-01-15T07:34:39;44.00;;;17.92;;
39860;SDS011;25529;49.346;20.886;2024-01-15T07:37:04;35.63;;;13.80;;
39860;SDS011;25529;49.346;20.886;2024-01-15T07:39:29;33.97;;;11.43;;
39860;SDS011;25529;49.346;20.886;2024-01-15T07:45:11;35.77;;;13.90;;
39860;SDS011;25529;49.346;20.886;2024-01-15T07:47:38;38.87;;;14.30;;
39860;SDS011;25529;49.346;20.886;2024-01-15T07:50:04;32.65;;;11.82;;
39860;SDS011;25529;49.346;20.886;2024-01-15T07:52:30;29.45;;;11.27;;
39860;SDS011;25529;49.346;20.886;2024-01-15T07:54:56;29.60;;;10.15;;
39860;SDS011;25529;49.346;20.886;2024-01-15T07:57:22;27.23;;;10.03;;
39860;SDS011;25529;49.346;20.886;2024-01-15T07:59:48;34.67;;;14.77;;
39860;SDS011;25529;49.346;20.886;2024-01-15T08:02:14;34.53;;;14.38;;
39860;SDS011;25529;49.346;20.886;2024-01-15T08:04:40;103.97;;;40.15;;
39860;SDS011;25529;49.346;20.886;2024-01-15T08:07:11;305.80;;;92.43;;
39860;SDS011;25529;49.346;20.886;2024-01-15T08:09:38;485.52;;;268.38;;
39860;SDS011;25529;49.346;20.886;2024-01-15T08:12:04;239.43;;;134.53;;
39860;SDS011;25529;49.346;20.886;2024-01-15T08:17:46;54.10;;;24.30;;
39860;SDS011;25529;49.346;20.886;2024-01-15T08:23:27;29.90;;;10.93;;
39860;SDS011;25529;49.346;20.886;2024-01-15T08:29:11;27.88;;;10.15;;
39860;SDS011;25529;49.346;20.886;2024-01-15T08:31:36;53.45;;;25.67;;
39860;SDS011;25529;49.346;20.886;2024-01-15T08:37:17;30.30;;;11.07;;
39860;SDS011;25529;49.346;20.886;2024-01-15T08:42:59;42.22;;;18.95;;
39860;SDS011;25529;49.346;20.886;2024-01-15T08:48:41;38.20;;;15.88;;
39860;SDS011;25529;49.346;20.886;2024-01-15T08:54:23;35.38;;;14.20;;
39860;SDS011;25529;49.346;20.886;2024-01-15T09:06:35;34.47;;;13.38;;
39860;SDS011;25529;49.346;20.886;2024-01-15T09:12:16;32.92;;;11.95;;
39860;SDS011;25529;49.346;20.886;2024-01-15T09:18:00;30.52;;;11.40;;
39860;SDS011;25529;49.346;20.886;2024-01-15T09:30:12;32.40;;;11.38;;
39860;SDS011;25529;49.346;20.886;2024-01-15T09:32:38;29.77;;;11.73;;
39860;SDS011;25529;49.346;20.886;2024-01-15T09:41:59;29.90;;;11.68;;
39860;SDS011;25529;49.346;20.886;2024-01-15T09:47:40;27.35;;;9.65;;
39860;SDS011;25529;49.346;20.886;2024-01-15T09:53:22;25.58;;;9.45;;
39860;SDS011;25529;49.346;20.886;2024-01-15T10:01:55;23.60;;;8.52;;
39860;SDS011;25529;49.346;20.886;2024-01-15T10:07:36;34.72;;;14.00;;
39860;SDS011;25529;49.346;20.886;2024-01-15T10:13:17;26.45;;;9.30;;
39860;SDS011;25529;49.346;20.886;2024-01-15T10:22:16;32.47;;;13.80;;
39860;SDS011;25529;49.346;20.886;2024-01-15T10:28:00;25.50;;;8.73;;
39860;SDS011;25529;49.346;20.886;2024-01-15T10:36:56;24.10;;;9.23;;
39860;SDS011;25529;49.346;20.886;2024-01-15T10:39:22;43.55;;;20.45;;
39860;SDS011;25529;49.346;20.886;2024-01-15T10:41:48;27.67;;;10.15;;
39860;SDS011;25529;49.346;20.886;2024-01-15T10:44:14;24.05;;;8.35;;
39860;SDS011;25529;49.346;20.886;2024-01-15T10:46:40;24.67;;;7.88;;
39860;SDS011;25529;49.346;20.886;2024-01-15T10:49:06;24.23;;;8.13;;
39860;SDS011;25529;49.346;20.886;2024-01-15T10:51:32;24.40;;;7.45;;
39860;SDS011;25529;49.346;20.886;2024-01-15T10:53:59;23.33;;;7.78;;
39860;SDS011;25529;49.346;20.886;2024-01-15T10:56:25;25.00;;;9.15;;
39860;SDS011;25529;49.346;20.886;2024-01-15T10:58:51;28.88;;;9.10;;
39860;SDS011;25529;49.346;20.886;2024-01-15T11:01:18;32.28;;;12.60;;
39860;SDS011;25529;49.346;20.886;2024-01-15T11:03:45;39.10;;;16.30;;
39860;SDS011;25529;49.346;20.886;2024-01-15T11:06:20;26.13;;;9.27;;
39860;SDS011;25529;49.346;20.886;2024-01-15T11:08:49;24.63;;;8.43;;
39860;SDS011;25529;49.346;20.886;2024-01-15T11:11:18;24.67;;;8.40;;
39860;SDS011;25529;49.346;20.886;2024-01-15T11:17:00;28.33;;;10.52;;
39860;SDS011;25529;49.346;20.886;2024-01-15T11:19:34;25.50;;;8.82;;
39860;SDS011;25529;49.346;20.886;2024-01-15T11:32:12;22.45;;;7.47;;
39860;SDS011;25529;49.346;20.886;2024-01-15T11:46:57;27.90;;;11.30;;
39860;SDS011;25529;49.346;20.886;2024-01-15T11:52:14;21.10;;;7.07;;
39860;SDS011;25529;49.346;20.886;2024-01-15T11:54:41;19.15;;;6.30;;
39860;SDS011;25529;49.346;20.886;2024-01-15T11:57:20;57.45;;;26.90;;
39860;SDS011;25529;49.346;20.886;2024-01-15T12:00:12;23.08;;;7.90;;
39860;SDS011;25529;49.346;20.886;2024-01-15T12:05:53;21.80;;;7.45;;
39860;SDS011;25529;49.346;20.886;2024-01-15T12:08:22;21.73;;;7.35;;
39860;SDS011;25529;49.346;20.886;2024-01-15T12:10:51;19.17;;;6.60;;
39860;SDS011;25529;49.346;20.886;2024-01-15T12:13:17;20.05;;;6.55;;
39860;SDS011;25529;49.346;20.886;2024-01-15T12:19:01;21.90;;;7.20;;
39860;SDS011;25529;49.346;20.886;2024-01-15T12:21:27;24.80;;;9.23;;
39860;SDS011;25529;49.346;20.886;2024-01-15T12:23:52;22.67;;;8.10;;
39860;SDS011;25529;49.346;20.886;2024-01-15T12:29:11;22.80;;;7.43;;
39860;SDS011;25529;49.346;20.886;2024-01-15T12:31:36;21.17;;;7.15;;
39860;SDS011;25529;49.346;20.886;2024-01-15T12:34:02;27.33;;;7.57;;
39860;SDS011;25529;49.346;20.886;2024-01-15T12:39:44;30.30;;;11.75;;
39860;SDS011;25529;49.346;20.886;2024-01-15T12:45:01;23.70;;;8.93;;
39860;SDS011;25529;49.346;20.886;2024-01-15T12:47:27;22.15;;;7.75;;
39860;SDS011;25529;49.346;20.886;2024-01-15T12:49:53;23.25;;;7.43;;
39860;SDS011;25529;49.346;20.886;2024-01-15T12:52:20;22.67;;;8.85;;
39860;SDS011;25529;49.346;20.886;2024-01-15T12:54:49;21.95;;;7.65;;
39860;SDS011;25529;49.346;20.886;2024-01-15T12:57:15;22.38;;;7.50;;
39860;SDS011;25529;49.346;20.886;2024-01-15T12:59:41;22.00;;;8.10;;
39860;SDS011;25529;49.346;20.886;2024-01-15T13:02:06;20.33;;;6.97;;
39860;SDS011;25529;49.346;20.886;2024-01-15T13:04:32;21.27;;;7.15;;
39860;SDS011;25529;49.346;20.886;2024-01-15T13:06:58;21.52;;;7.13;;
39860;SDS011;25529;49.346;20.886;2024-01-15T13:09:24;23.75;;;7.90;;
39860;SDS011;25529;49.346;20.886;2024-01-15T13:11:50;22.35;;;7.82;;
39860;SDS011;25529;49.346;20.886;2024-01-15T13:14:16;21.98;;;7.75;;
39860;SDS011;25529;49.346;20.886;2024-01-15T13:16:41;22.63;;;7.22;;
39860;SDS011;25529;49.346;20.886;2024-01-15T13:19:09;22.58;;;7.72;;
39860;SDS011;25529;49.346;20.886;2024-01-15T13:21:36;22.75;;;8.18;;
39860;SDS011;25529;49.346;20.886;2024-01-15T13:24:02;23.20;;;7.93;;
39860;SDS011;25529;49.346;20.886;2024-01-15T13:26:28;24.50;;;8.43;;
39860;SDS011;25529;49.346;20.886;2024-01-15T13:29:01;21.38;;;7.05;;
39860;SDS011;25529;49.346;20.886;2024-01-15T13:31:45;21.77;;;7.25;;
39860;SDS011;25529;49.346;20.886;2024-01-15T13:37:27;22.55;;;7.43;;
39860;SDS011;25529;49.346;20.886;2024-01-15T13:39:53;22.33;;;7.38;;
39860;SDS011;25529;49.346;20.886;2024-01-15T13:42:20;21.98;;;7.50;;
39860;SDS011;25529;49.346;20.886;2024-01-15T13:44:48;22.00;;;6.97;;
39860;SDS011;25529;49.346;20.886;2024-01-15T13:47:15;24.73;;;8.77;;
39860;SDS011;25529;49.346;20.886;2024-01-15T13:49:40;36.55;;;15.32;;
39860;SDS011;25529;49.346;20.886;2024-01-15T13:55:21;27.55;;;9.85;;
39860;SDS011;25529;49.346;20.886;2024-01-15T13:57:46;23.55;;;7.60;;
39860;SDS011;25529;49.346;20.886;2024-01-15T14:03:29;21.65;;;7.15;;
39860;SDS011;25529;49.346;20.886;2024-01-15T14:09:11;21.33;;;6.93;;
39860;SDS011;25529;49.346;20.886;2024-01-15T14:14:55;27.20;;;8.18;;
39860;SDS011;25529;49.346;20.886;2024-01-15T14:20:36;35.80;;;14.90;;
39860;SDS011;25529;49.346;20.886;2024-01-15T14:32:47;21.42;;;7.35;;
39860;SDS011;25529;49.346;20.886;2024-01-15T14:38:04;19.08;;;6.60;;
39860;SDS011;25529;49.346;20.886;2024-01-15T14:46:36;21.52;;;7.18;;
39860;SDS011;25529;49.346;20.886;2024-01-15T14:55:32;21.10;;;6.63;;
39860;SDS011;25529;49.346;20.886;2024-01-15T15:01:13;21.38;;;6.85;;
39860;SDS011;25529;49.346;20.886;2024-01-15T15:06:54;22.95;;;7.05;;
39860;SDS011;25529;49.346;20.886;2024-01-15T15:09:21;22.40;;;7.05;;
39860;SDS011;25529;49.346;20.886;2024-01-15T15:11:46;21.23;;;6.72;;
39860;SDS011;25529;49.346;20.886;2024-01-15T15:17:27;21.70;;;7.03;;
39860;SDS011;25529;49.346;20.886;2024-01-15T15:22:44;23.25;;;7.10;;
39860;SDS011;25529;49.346;20.886;2024-01-15T15:31:16;25.58;;;8.95;;
39860;SDS011;25529;49.346;20.886;2024-01-15T15:46:20;23.27;;;6.88;;
39860;SDS011;25529;49.346;20.886;2024-01-15T15:48:45;20.65;;;6.50;;
39860;SDS011;25529;49.346;20.886;2024-01-15T15:54:26;19.58;;;5.97;;
39860;SDS011;25529;49.346;20.886;2024-01-15T15:56:52;18.98;;;5.88;;
39860;SDS011;25529;49.346;20.886;2024-01-15T15:59:17;20.48;;;6.68;;
39860;SDS011;25529;49.346;20.886;2024-01-15T16:04:59;21.08;;;6.47;;
39860;SDS011;25529;49.346;20.886;2024-01-15T16:07:24;19.85;;;6.47;;
39860;SDS011;25529;49.346;20.886;2024-01-15T16:13:09;18.90;;;5.57;;
39860;SDS011;25529;49.346;20.886;2024-01-15T16:15:35;17.08;;;5.47;;
39860;SDS011;25529;49.346;20.886;2024-01-15T16:18:00;20.23;;;6.20;;
39860;SDS011;25529;49.346;20.886;2024-01-15T16:20:26;18.05;;;5.65;;
39860;SDS011;25529;49.346;20.886;2024-01-15T16:22:51;34.78;;;13.50;;
39860;SDS011;25529;49.346;20.886;2024-01-15T16:28:32;19.48;;;6.15;;
39860;SDS011;25529;49.346;20.886;2024-01-15T16:30:57;18.25;;;5.38;;
39860;SDS011;25529;49.346;20.886;2024-01-15T16:33:23;17.83;;;5.47;;
39860;SDS011;25529;49.346;20.886;2024-01-15T16:42:19;18.63;;;5.63;;
39860;SDS011;25529;49.346;20.886;2024-01-15T16:44:44;19.83;;;5.82;;
39860;SDS011;25529;49.346;20.886;2024-01-15T16:47:10;18.65;;;5.82;;
39860;SDS011;25529;49.346;20.886;2024-01-15T16:49:35;18.80;;;6.15;;
39860;SDS011;25529;49.346;20.886;2024-01-15T16:58:32;17.77;;;5.10;;
39860;SDS011;25529;49.346;20.886;2024-01-15T17:01:00;17.48;;;5.32;;
39860;SDS011;25529;49.346;20.886;2024-01-15T17:03:26;20.08;;;6.28;;
39860;SDS011;25529;49.346;20.886;2024-01-15T17:05:52;20.00;;;6.10;;
39860;SDS011;25529;49.346;20.886;2024-01-15T17:08:18;18.00;;;5.65;;
39860;SDS011;25529;49.346;20.886;2024-01-15T17:10:44;19.95;;;6.00;;
39860;SDS011;25529;49.346;20.886;2024-01-15T17:13:11;18.15;;;5.90;;
39860;SDS011;25529;49.346;20.886;2024-01-15T17:28:39;18.63;;;5.75;;
39860;SDS011;25529;49.346;20.886;2024-01-15T17:40:51;20.65;;;6.63;;
39860;SDS011;25529;49.346;20.886;2024-01-15T17:43:17;18.67;;;5.90;;
39860;SDS011;25529;49.346;20.886;2024-01-15T17:45:47;19.48;;;6.00;;
39860;SDS011;25529;49.346;20.886;2024-01-15T17:51:06;20.02;;;6.45;;
39860;SDS011;25529;49.346;20.886;2024-01-15T17:53:32;22.10;;;7.00;;
39860;SDS011;25529;49.346;20.886;2024-01-15T17:56:17;20.35;;;6.68;;
39860;SDS011;25529;49.346;20.886;2024-01-15T17:58:43;21.42;;;6.95;;
39860;SDS011;25529;49.346;20.886;2024-01-15T18:01:08;21.30;;;6.18;;
39860;SDS011;25529;49.346;20.886;2024-01-15T18:03:34;18.60;;;6.25;;
39860;SDS011;25529;49.346;20.886;2024-01-15T18:06:00;20.80;;;6.07;;
39860;SDS011;25529;49.346;20.886;2024-01-15T18:08:26;19.17;;;5.93;;
39860;SDS011;25529;49.346;20.886;2024-01-15T18:10:51;18.25;;;5.78;;
39860;SDS011;25529;49.346;20.886;2024-01-15T18:13:17;21.67;;;6.93;;
39860;SDS011;25529;49.346;20.886;2024-01-15T18:15:42;20.33;;;6.60;;
39860;SDS011;25529;49.346;20.886;2024-01-15T18:18:08;21.13;;;6.75;;
39860;SDS011;25529;49.346;20.886;2024-01-15T18:20:34;19.70;;;6.28;;
39860;SDS011;25529;49.346;20.886;2024-01-15T18:23:01;22.27;;;6.53;;
39860;SDS011;25529;49.346;20.886;2024-01-15T18:25:26;22.05;;;7.18;;
39860;SDS011;25529;49.346;20.886;2024-01-15T18:27:52;21.75;;;6.65;;
39860;SDS011;25529;49.346;20.886;2024-01-15T18:30:17;18.48;;;6.25;;
39860;SDS011;25529;49.346;20.886;2024-01-15T18:32:43;20.63;;;6.30;;
39860;SDS011;25529;49.346;20.886;2024-01-15T18:35:08;20.40;;;6.50;;
39860;SDS011;25529;49.346;20.886;2024-01-15T18:37:33;22.52;;;6.88;;
39860;SDS011;25529;49.346;20.886;2024-01-15T18:39:59;20.73;;;6.78;;
39860;SDS011;25529;49.346;20.886;2024-01-15T18:42:24;21.10;;;7.32;;
39860;SDS011;25529;49.346;20.886;2024-01-15T18:44:50;19.50;;;6.53;;
39860;SDS011;25529;49.346;20.886;2024-01-15T18:47:16;20.08;;;6.40;;
39860;SDS011;25529;49.346;20.886;2024-01-15T18:49:42;21.13;;;6.72;;